sensor_id;sensor_type;location;lat;lon;timestamp;temperature;humidity
58582;DHT22;44361;51.476;5.700;2023-04-24T00:00:13;9.80;99.90
58582;DHT22;44361;51.476;5.700;2023-04-24T00:02:40;9.80;99.90
58582;DHT22;44361;51.476;5.700;2023-04-24T00:05:06;9.80;99.90
58582;DHT22;44361;51.476;5.700;2023-04-24T00:07:33;9.80;99.90
58582;DHT22;44361;51.476;5.700;2023-04-24T00:09:58;9.80;99.90
58582;DHT22;44361;51.476;5.700;2023-04-24T00:12:24;9.80;99.90
58582;DHT22;44361;51.476;5.700;2023-04-24T00:14:50;9.80;99.90
58582;DHT22;44361;51.476;5.700;2023-04-24T00:17:16;9.80;99.90
58582;DHT22;44361;51.476;5.700;2023-04-24T00:19:45;9.80;99.90
58582;DHT22;44361;51.476;5.700;2023-04-24T00:22:11;9.80;99.90
58582;DHT22;44361;51.476;5.700;2023-04-24T00:24:38;9.70;99.90
58582;DHT22;44361;51.476;5.700;2023-04-24T00:27:04;9.80;99.90
58582;DHT22;44361;51.476;5.700;2023-04-24T00:29:30;9.80;99.90
58582;DHT22;44361;51.476;5.700;2023-04-24T00:31:55;9.70;99.90
58582;DHT22;44361;51.476;5.700;2023-04-24T00:34:21;9.70;99.90
58582;DHT22;44361;51.476;5.700;2023-04-24T00:36:46;9.70;99.90
58582;DHT22;44361;51.476;5.700;2023-04-24T00:39:14;9.70;99.90
58582;DHT22;44361;51.476;5.700;2023-04-24T00:41:39;9.70;99.90
58582;DHT22;44361;51.476;5.700;2023-04-24T00:44:05;9.70;99.90
58582;DHT22;44361;51.476;5.700;2023-04-24T00:46:31;9.70;99.90
58582;DHT22;44361;51.476;5.700;2023-04-24T00:48:59;9.70;99.90
58582;DHT22;44361;51.476;5.700;2023-04-24T00:51:24;9.70;99.90
58582;DHT22;44361;51.476;5.700;2023-04-24T00:53:50;9.70;99.90
58582;DHT22;44361;51.476;5.700;2023-04-24T00:56:17;9.70;99.90
58582;DHT22;44361;51.476;5.700;2023-04-24T00:58:43;9.60;99.90
58582;DHT22;44361;51.476;5.700;2023-04-24T01:01:10;9.60;99.90
58582;DHT22;44361;51.476;5.700;2023-04-24T01:03:37;9.60;99.90
58582;DHT22;44361;51.476;5.700;2023-04-24T01:06:03;9.50;99.90
58582;DHT22;44361;51.476;5.700;2023-04-24T01:08:30;9.50;99.90
58582;DHT22;44361;51.476;5.700;2023-04-24T01:10:57;9.50;99.90
58582;DHT22;44361;51.476;5.700;2023-04-24T01:13:24;9.50;99.90
58582;DHT22;44361;51.476;5.700;2023-04-24T01:15:49;9.40;99.90
58582;DHT22;44361;51.476;5.700;2023-04-24T01:18:15;9.40;99.90
58582;DHT22;44361;51.476;5.700;2023-04-24T01:20:42;9.40;99.90
58582;DHT22;44361;51.476;5.700;2023-04-24T01:23:09;9.40;99.90
58582;DHT22;44361;51.476;5.700;2023-04-24T01:25:36;9.40;99.90
58582;DHT22;44361;51.476;5.700;2023-04-24T01:28:02;9.30;99.90
58582;DHT22;44361;51.476;5.700;2023-04-24T01:30:28;9.40;99.90
58582;DHT22;44361;51.476;5.700;2023-04-24T01:32:55;9.30;99.90
58582;DHT22;44361;51.476;5.700;2023-04-24T01:35:21;9.30;99.90
58582;DHT22;44361;51.476;5.700;2023-04-24T01:37:46;9.30;99.90
58582;DHT22;44361;51.476;5.700;2023-04-24T01:40:12;9.30;99.90
58582;DHT22;44361;51.476;5.700;2023-04-24T01:42:38;9.30;99.90
58582;DHT22;44361;51.476;5.700;2023-04-24T01:45:04;9.30;99.90
58582;DHT22;44361;51.476;5.700;2023-04-24T01:47:31;9.30;99.90
58582;DHT22;44361;51.476;5.700;2023-04-24T01:49:57;9.30;99.90
58582;DHT22;44361;51.476;5.700;2023-04-24T01:52:23;9.30;99.90
58582;DHT22;44361;51.476;5.700;2023-04-24T01:54:49;9.30;99.90
58582;DHT22;44361;51.476;5.700;2023-04-24T01:57:15;9.30;99.90
58582;DHT22;44361;51.476;5.700;2023-04-24T01:59:41;9.30;99.90
58582;DHT22;44361;51.476;5.700;2023-04-24T02:02:07;9.30;99.90
58582;DHT22;44361;51.476;5.700;2023-04-24T02:04:32;9.30;99.90
58582;DHT22;44361;51.476;5.700;2023-04-24T02:06:58;9.30;99.90
58582;DHT22;44361;51.476;5.700;2023-04-24T02:09:23;9.30;99.90
58582;DHT22;44361;51.476;5.700;2023-04-24T02:11:49;9.30;99.90
58582;DHT22;44361;51.476;5.700;2023-04-24T02:14:14;9.30;99.90
58582;DHT22;44361;51.476;5.700;2023-04-24T02:16:40;9.30;99.90
58582;DHT22;44361;51.476;5.700;2023-04-24T02:19:05;9.30;99.90
58582;DHT22;44361;51.476;5.700;2023-04-24T02:21:31;9.30;99.90
58582;DHT22;44361;51.476;5.700;2023-04-24T02:23:58;9.30;99.90
58582;DHT22;44361;51.476;5.700;2023-04-24T02:26:23;9.30;99.90
58582;DHT22;44361;51.476;5.700;2023-04-24T02:28:49;9.30;99.90
58582;DHT22;44361;51.476;5.700;2023-04-24T02:31:15;9.30;99.90
58582;DHT22;44361;51.476;5.700;2023-04-24T02:33:42;9.30;99.90
58582;DHT22;44361;51.476;5.700;2023-04-24T02:36:07;9.30;99.90
58582;DHT22;44361;51.476;5.700;2023-04-24T02:38:33;9.30;99.90
58582;DHT22;44361;51.476;5.700;2023-04-24T02:40:58;9.30;99.90
58582;DHT22;44361;51.476;5.700;2023-04-24T02:43:24;9.30;99.90
58582;DHT22;44361;51.476;5.700;2023-04-24T02:45:49;9.30;99.90
58582;DHT22;44361;51.476;5.700;2023-04-24T02:48:15;9.30;99.90
58582;DHT22;44361;51.476;5.700;2023-04-24T02:50:42;9.30;99.90
58582;DHT22;44361;51.476;5.700;2023-04-24T02:53:07;9.30;99.90
58582;DHT22;44361;51.476;5.700;2023-04-24T02:55:33;9.30;99.90
58582;DHT22;44361;51.476;5.700;2023-04-24T02:57:58;9.30;99.90
58582;DHT22;44361;51.476;5.700;2023-04-24T03:00:24;9.30;99.90
58582;DHT22;44361;51.476;5.700;2023-04-24T03:02:49;9.30;99.90
58582;DHT22;44361;51.476;5.700;2023-04-24T03:05:15;9.30;99.90
58582;DHT22;44361;51.476;5.700;2023-04-24T03:07:41;9.30;99.90
58582;DHT22;44361;51.476;5.700;2023-04-24T03:10:07;9.30;99.90
58582;DHT22;44361;51.476;5.700;2023-04-24T03:12:33;9.30;99.90
58582;DHT22;44361;51.476;5.700;2023-04-24T03:14:58;9.30;99.90
58582;DHT22;44361;51.476;5.700;2023-04-24T03:17:24;9.40;99.90
58582;DHT22;44361;51.476;5.700;2023-04-24T03:19:50;9.30;99.90
58582;DHT22;44361;51.476;5.700;2023-04-24T03:22:15;9.40;99.90
58582;DHT22;44361;51.476;5.700;2023-04-24T03:24:41;9.40;99.90
58582;DHT22;44361;51.476;5.700;2023-04-24T03:27:06;9.30;99.90
58582;DHT22;44361;51.476;5.700;2023-04-24T03:29:32;9.30;99.90
58582;DHT22;44361;51.476;5.700;2023-04-24T03:31:59;9.30;99.90
58582;DHT22;44361;51.476;5.700;2023-04-24T03:34:24;9.30;99.90
58582;DHT22;44361;51.476;5.700;2023-04-24T03:36:50;9.30;99.90
58582;DHT22;44361;51.476;5.700;2023-04-24T03:39:15;9.30;99.90
58582;DHT22;44361;51.476;5.700;2023-04-24T03:41:41;9.20;99.90
58582;DHT22;44361;51.476;5.700;2023-04-24T03:44:06;9.20;99.90
58582;DHT22;44361;51.476;5.700;2023-04-24T03:46:32;9.20;99.90
58582;DHT22;44361;51.476;5.700;2023-04-24T03:48:57;9.20;99.90
58582;DHT22;44361;51.476;5.700;2023-04-24T03:51:23;9.20;99.90
58582;DHT22;44361;51.476;5.700;2023-04-24T03:53:49;9.20;99.90
58582;DHT22;44361;51.476;5.700;2023-04-24T03:56:15;9.20;99.90
58582;DHT22;44361;51.476;5.700;2023-04-24T03:58:40;9.20;99.90
58582;DHT22;44361;51.476;5.700;2023-04-24T04:01:06;9.20;99.90
58582;DHT22;44361;51.476;5.700;2023-04-24T04:03:31;9.20;99.90
58582;DHT22;44361;51.476;5.700;2023-04-24T04:05:57;9.20;99.90
58582;DHT22;44361;51.476;5.700;2023-04-24T04:08:23;9.20;99.90
58582;DHT22;44361;51.476;5.700;2023-04-24T04:10:48;9.20;99.90
58582;DHT22;44361;51.476;5.700;2023-04-24T04:13:14;9.20;99.90
58582;DHT22;44361;51.476;5.700;2023-04-24T04:15:40;9.20;99.90
58582;DHT22;44361;51.476;5.700;2023-04-24T04:18:05;9.20;99.90
58582;DHT22;44361;51.476;5.700;2023-04-24T04:20:31;9.10;99.90
58582;DHT22;44361;51.476;5.700;2023-04-24T04:22:57;9.10;99.90
58582;DHT22;44361;51.476;5.700;2023-04-24T04:25:22;9.10;99.90
58582;DHT22;44361;51.476;5.700;2023-04-24T04:27:48;9.00;99.90
58582;DHT22;44361;51.476;5.700;2023-04-24T04:30:14;9.00;99.90
58582;DHT22;44361;51.476;5.700;2023-04-24T04:32:40;8.90;99.90
58582;DHT22;44361;51.476;5.700;2023-04-24T04:35:06;8.90;99.90
58582;DHT22;44361;51.476;5.700;2023-04-24T04:37:34;8.80;99.90
58582;DHT22;44361;51.476;5.700;2023-04-24T04:40:00;8.80;99.90
58582;DHT22;44361;51.476;5.700;2023-04-24T04:42:26;8.80;99.90
58582;DHT22;44361;51.476;5.700;2023-04-24T04:44:52;8.80;99.90
58582;DHT22;44361;51.476;5.700;2023-04-24T04:47:21;8.80;99.90
58582;DHT22;44361;51.476;5.700;2023-04-24T04:49:50;8.80;99.90
58582;DHT22;44361;51.476;5.700;2023-04-24T04:52:17;8.80;99.90
58582;DHT22;44361;51.476;5.700;2023-04-24T04:54:43;8.80;99.90
58582;DHT22;44361;51.476;5.700;2023-04-24T04:57:08;8.70;99.90
58582;DHT22;44361;51.476;5.700;2023-04-24T04:59:34;8.70;99.90
58582;DHT22;44361;51.476;5.700;2023-04-24T05:02:00;8.70;99.90
58582;DHT22;44361;51.476;5.700;2023-04-24T05:04:25;8.70;99.90
58582;DHT22;44361;51.476;5.700;2023-04-24T05:06:52;8.70;99.90
58582;DHT22;44361;51.476;5.700;2023-04-24T05:09:17;8.70;99.90
58582;DHT22;44361;51.476;5.700;2023-04-24T05:11:43;8.60;99.90
58582;DHT22;44361;51.476;5.700;2023-04-24T05:14:09;8.60;99.90
58582;DHT22;44361;51.476;5.700;2023-04-24T05:16:34;8.60;99.90
58582;DHT22;44361;51.476;5.700;2023-04-24T05:19:00;8.60;99.90
58582;DHT22;44361;51.476;5.700;2023-04-24T05:21:25;8.60;99.90
58582;DHT22;44361;51.476;5.700;2023-04-24T05:23:52;8.60;99.90
58582;DHT22;44361;51.476;5.700;2023-04-24T05:26:17;8.60;99.90
58582;DHT22;44361;51.476;5.700;2023-04-24T05:28:43;8.60;99.90
58582;DHT22;44361;51.476;5.700;2023-04-24T05:31:08;8.70;99.90
58582;DHT22;44361;51.476;5.700;2023-04-24T05:33:34;8.70;99.90
58582;DHT22;44361;51.476;5.700;2023-04-24T05:35:59;8.70;99.90
58582;DHT22;44361;51.476;5.700;2023-04-24T05:38:25;8.80;99.90
58582;DHT22;44361;51.476;5.700;2023-04-24T05:40:50;8.80;99.90
58582;DHT22;44361;51.476;5.700;2023-04-24T05:43:16;8.90;99.90
58582;DHT22;44361;51.476;5.700;2023-04-24T05:45:42;8.90;99.90
58582;DHT22;44361;51.476;5.700;2023-04-24T05:48:07;8.80;99.90
58582;DHT22;44361;51.476;5.700;2023-04-24T05:50:33;8.80;99.90
58582;DHT22;44361;51.476;5.700;2023-04-24T05:52:58;8.80;99.90
58582;DHT22;44361;51.476;5.700;2023-04-24T05:55:24;8.70;99.90
58582;DHT22;44361;51.476;5.700;2023-04-24T05:57:51;8.70;99.90
58582;DHT22;44361;51.476;5.700;2023-04-24T06:00:16;8.70;99.90
58582;DHT22;44361;51.476;5.700;2023-04-24T06:02:43;8.70;99.90
58582;DHT22;44361;51.476;5.700;2023-04-24T06:05:09;8.60;99.90
58582;DHT22;44361;51.476;5.700;2023-04-24T06:07:35;8.60;99.90
58582;DHT22;44361;51.476;5.700;2023-04-24T06:10:00;8.50;99.90
58582;DHT22;44361;51.476;5.700;2023-04-24T06:12:26;8.40;99.90
58582;DHT22;44361;51.476;5.700;2023-04-24T06:14:52;8.40;99.90
58582;DHT22;44361;51.476;5.700;2023-04-24T06:17:18;8.40;99.90
58582;DHT22;44361;51.476;5.700;2023-04-24T06:19:44;8.30;99.90
58582;DHT22;44361;51.476;5.700;2023-04-24T06:22:09;8.30;99.90
58582;DHT22;44361;51.476;5.700;2023-04-24T06:24:35;8.30;99.90
58582;DHT22;44361;51.476;5.700;2023-04-24T06:27:00;8.30;99.90
58582;DHT22;44361;51.476;5.700;2023-04-24T06:29:27;8.40;99.90
58582;DHT22;44361;51.476;5.700;2023-04-24T06:31:52;8.40;99.90
58582;DHT22;44361;51.476;5.700;2023-04-24T06:34:18;8.40;99.90
58582;DHT22;44361;51.476;5.700;2023-04-24T06:36:44;8.40;99.90
58582;DHT22;44361;51.476;5.700;2023-04-24T06:39:09;8.40;99.90
58582;DHT22;44361;51.476;5.700;2023-04-24T06:41:35;8.40;99.90
58582;DHT22;44361;51.476;5.700;2023-04-24T06:44:01;8.40;99.90
58582;DHT22;44361;51.476;5.700;2023-04-24T06:46:26;8.50;99.90
58582;DHT22;44361;51.476;5.700;2023-04-24T06:48:53;8.50;99.90
58582;DHT22;44361;51.476;5.700;2023-04-24T06:51:26;8.60;99.90
58582;DHT22;44361;51.476;5.700;2023-04-24T06:53:53;8.60;99.90
58582;DHT22;44361;51.476;5.700;2023-04-24T06:56:19;8.60;99.90
58582;DHT22;44361;51.476;5.700;2023-04-24T06:58:44;8.50;99.90
58582;DHT22;44361;51.476;5.700;2023-04-24T07:01:11;8.50;99.90
58582;DHT22;44361;51.476;5.700;2023-04-24T07:03:36;8.50;99.90
58582;DHT22;44361;51.476;5.700;2023-04-24T07:06:02;8.60;99.90
58582;DHT22;44361;51.476;5.700;2023-04-24T07:08:29;8.70;99.90
58582;DHT22;44361;51.476;5.700;2023-04-24T07:10:56;8.70;99.90
58582;DHT22;44361;51.476;5.700;2023-04-24T07:13:22;8.70;99.90
58582;DHT22;44361;51.476;5.700;2023-04-24T07:15:48;8.60;99.90
58582;DHT22;44361;51.476;5.700;2023-04-24T07:18:16;8.60;99.90
58582;DHT22;44361;51.476;5.700;2023-04-24T07:20:41;8.50;99.90
58582;DHT22;44361;51.476;5.700;2023-04-24T07:23:07;8.50;99.90
58582;DHT22;44361;51.476;5.700;2023-04-24T07:25:33;8.60;99.90
58582;DHT22;44361;51.476;5.700;2023-04-24T07:27:58;8.50;99.90
58582;DHT22;44361;51.476;5.700;2023-04-24T07:30:24;8.50;99.90
58582;DHT22;44361;51.476;5.700;2023-04-24T07:32:49;8.50;99.90
58582;DHT22;44361;51.476;5.700;2023-04-24T07:35:15;8.40;99.90
58582;DHT22;44361;51.476;5.700;2023-04-24T07:37:41;8.40;99.90
58582;DHT22;44361;51.476;5.700;2023-04-24T07:40:12;8.40;99.90
58582;DHT22;44361;51.476;5.700;2023-04-24T07:42:37;8.30;99.90
58582;DHT22;44361;51.476;5.700;2023-04-24T07:45:03;8.30;99.90
58582;DHT22;44361;51.476;5.700;2023-04-24T07:47:29;8.30;99.90
58582;DHT22;44361;51.476;5.700;2023-04-24T07:49:55;8.30;99.90
58582;DHT22;44361;51.476;5.700;2023-04-24T07:52:21;8.30;99.90
58582;DHT22;44361;51.476;5.700;2023-04-24T07:54:47;8.30;99.90
58582;DHT22;44361;51.476;5.700;2023-04-24T07:57:12;8.30;99.90
58582;DHT22;44361;51.476;5.700;2023-04-24T07:59:39;8.30;99.90
58582;DHT22;44361;51.476;5.700;2023-04-24T08:02:04;8.30;99.90
58582;DHT22;44361;51.476;5.700;2023-04-24T08:04:31;8.30;99.90
58582;DHT22;44361;51.476;5.700;2023-04-24T08:06:57;8.30;99.90
58582;DHT22;44361;51.476;5.700;2023-04-24T08:09:22;8.30;99.90
58582;DHT22;44361;51.476;5.700;2023-04-24T08:11:48;8.20;99.90
58582;DHT22;44361;51.476;5.700;2023-04-24T08:14:13;8.20;99.90
58582;DHT22;44361;51.476;5.700;2023-04-24T08:16:40;8.20;99.90
58582;DHT22;44361;51.476;5.700;2023-04-24T08:19:06;8.20;99.90
58582;DHT22;44361;51.476;5.700;2023-04-24T08:21:31;8.30;99.90
58582;DHT22;44361;51.476;5.700;2023-04-24T08:23:57;8.20;99.90
58582;DHT22;44361;51.476;5.700;2023-04-24T08:26:23;8.30;99.90
58582;DHT22;44361;51.476;5.700;2023-04-24T08:28:48;8.30;99.90
58582;DHT22;44361;51.476;5.700;2023-04-24T08:31:14;8.30;99.90
58582;DHT22;44361;51.476;5.700;2023-04-24T08:33:39;8.50;99.90
58582;DHT22;44361;51.476;5.700;2023-04-24T08:36:06;8.50;99.90
58582;DHT22;44361;51.476;5.700;2023-04-24T08:38:32;8.50;99.90
58582;DHT22;44361;51.476;5.700;2023-04-24T08:41:00;8.40;99.90
58582;DHT22;44361;51.476;5.700;2023-04-24T08:43:26;8.40;99.90
58582;DHT22;44361;51.476;5.700;2023-04-24T08:45:53;8.50;99.90
58582;DHT22;44361;51.476;5.700;2023-04-24T08:48:21;8.60;99.90
58582;DHT22;44361;51.476;5.700;2023-04-24T08:50:49;8.60;99.90
58582;DHT22;44361;51.476;5.700;2023-04-24T08:53:15;8.60;99.90
58582;DHT22;44361;51.476;5.700;2023-04-24T08:55:41;8.60;99.90
58582;DHT22;44361;51.476;5.700;2023-04-24T08:58:08;8.70;99.90
58582;DHT22;44361;51.476;5.700;2023-04-24T09:00:34;8.60;99.90
58582;DHT22;44361;51.476;5.700;2023-04-24T09:03:00;8.70;99.90
58582;DHT22;44361;51.476;5.700;2023-04-24T09:05:27;8.60;99.90
58582;DHT22;44361;51.476;5.700;2023-04-24T09:07:55;8.60;99.90
58582;DHT22;44361;51.476;5.700;2023-04-24T09:10:25;8.70;99.90
58582;DHT22;44361;51.476;5.700;2023-04-24T09:12:51;8.70;99.90
58582;DHT22;44361;51.476;5.700;2023-04-24T09:15:19;8.70;99.90
58582;DHT22;44361;51.476;5.700;2023-04-24T09:17:46;8.90;99.90
58582;DHT22;44361;51.476;5.700;2023-04-24T09:20:11;9.10;99.90
58582;DHT22;44361;51.476;5.700;2023-04-24T09:22:37;9.30;99.90
58582;DHT22;44361;51.476;5.700;2023-04-24T09:25:04;9.30;99.90
58582;DHT22;44361;51.476;5.700;2023-04-24T09:27:31;9.20;99.90
58582;DHT22;44361;51.476;5.700;2023-04-24T09:29:57;9.20;99.90
58582;DHT22;44361;51.476;5.700;2023-04-24T09:32:24;9.10;99.90
58582;DHT22;44361;51.476;5.700;2023-04-24T09:37:46;8.90;99.90
58582;DHT22;44361;51.476;5.700;2023-04-24T09:40:18;8.90;99.90
58582;DHT22;44361;51.476;5.700;2023-04-24T09:45:17;9.10;99.90
58582;DHT22;44361;51.476;5.700;2023-04-24T09:47:42;9.30;99.90
58582;DHT22;44361;51.476;5.700;2023-04-24T09:50:16;9.60;99.90
58582;DHT22;44361;51.476;5.700;2023-04-24T09:52:43;9.90;99.90
58582;DHT22;44361;51.476;5.700;2023-04-24T09:55:27;10.00;99.90
58582;DHT22;44361;51.476;5.700;2023-04-24T09:57:58;9.90;99.90
58582;DHT22;44361;51.476;5.700;2023-04-24T10:00:29;9.70;99.90
58582;DHT22;44361;51.476;5.700;2023-04-24T10:02:59;9.40;99.90
58582;DHT22;44361;51.476;5.700;2023-04-24T10:05:37;9.20;99.90
58582;DHT22;44361;51.476;5.700;2023-04-24T10:08:11;9.10;99.90
58582;DHT22;44361;51.476;5.700;2023-04-24T10:10:45;9.10;99.90
58582;DHT22;44361;51.476;5.700;2023-04-24T10:13:12;9.10;99.90
58582;DHT22;44361;51.476;5.700;2023-04-24T10:15:39;9.20;99.90
58582;DHT22;44361;51.476;5.700;2023-04-24T10:18:06;9.40;99.90
58582;DHT22;44361;51.476;5.700;2023-04-24T10:20:33;9.80;99.90
58582;DHT22;44361;51.476;5.700;2023-04-24T10:22:59;10.10;99.90
58582;DHT22;44361;51.476;5.700;2023-04-24T10:25:30;10.40;99.90
58582;DHT22;44361;51.476;5.700;2023-04-24T10:27:55;10.70;99.90
58582;DHT22;44361;51.476;5.700;2023-04-24T10:30:29;10.80;99.90
58582;DHT22;44361;51.476;5.700;2023-04-24T10:32:55;11.00;99.90
58582;DHT22;44361;51.476;5.700;2023-04-24T10:35:22;11.30;99.90
58582;DHT22;44361;51.476;5.700;2023-04-24T10:40:33;10.80;99.90
58582;DHT22;44361;51.476;5.700;2023-04-24T10:43:02;10.60;99.90
58582;DHT22;44361;51.476;5.700;2023-04-24T10:45:27;10.40;99.90
58582;DHT22;44361;51.476;5.700;2023-04-24T10:48:00;10.30;99.90
58582;DHT22;44361;51.476;5.700;2023-04-24T10:53:21;10.20;99.90
58582;DHT22;44361;51.476;5.700;2023-04-24T10:58:42;10.00;99.90
58582;DHT22;44361;51.476;5.700;2023-04-24T11:01:31;9.90;99.90
58582;DHT22;44361;51.476;5.700;2023-04-24T11:03:59;10.10;99.90
58582;DHT22;44361;51.476;5.700;2023-04-24T11:06:36;10.40;99.90
58582;DHT22;44361;51.476;5.700;2023-04-24T11:09:09;10.50;99.90
58582;DHT22;44361;51.476;5.700;2023-04-24T11:11:38;10.60;99.90
58582;DHT22;44361;51.476;5.700;2023-04-24T11:14:07;10.60;99.90
58582;DHT22;44361;51.476;5.700;2023-04-24T11:19:22;10.30;99.90
58582;DHT22;44361;51.476;5.700;2023-04-24T11:24:38;10.50;99.90
58582;DHT22;44361;51.476;5.700;2023-04-24T11:32:34;10.80;99.90
58582;DHT22;44361;51.476;5.700;2023-04-24T11:35:23;10.70;99.90
58582;DHT22;44361;51.476;5.700;2023-04-24T11:37:53;10.50;99.90
58582;DHT22;44361;51.476;5.700;2023-04-24T11:40:21;10.20;99.90
58582;DHT22;44361;51.476;5.700;2023-04-24T11:42:49;10.00;99.90
58582;DHT22;44361;51.476;5.700;2023-04-24T11:45:17;9.70;99.90
58582;DHT22;44361;51.476;5.700;2023-04-24T11:47:44;9.40;99.90
58582;DHT22;44361;51.476;5.700;2023-04-24T11:50:12;9.10;99.90
58582;DHT22;44361;51.476;5.700;2023-04-24T11:52:43;9.00;99.90
58582;DHT22;44361;51.476;5.700;2023-04-24T11:55:23;9.00;99.90
58582;DHT22;44361;51.476;5.700;2023-04-24T11:57:54;9.00;99.90
58582;DHT22;44361;51.476;5.700;2023-04-24T12:00:31;9.10;99.90
58582;DHT22;44361;51.476;5.700;2023-04-24T12:03:05;9.40;99.90
58582;DHT22;44361;51.476;5.700;2023-04-24T12:05:31;9.90;99.90
58582;DHT22;44361;51.476;5.700;2023-04-24T12:07:56;10.30;99.90
58582;DHT22;44361;51.476;5.700;2023-04-24T12:10:24;10.50;99.90
58582;DHT22;44361;51.476;5.700;2023-04-24T12:12:50;10.50;99.90
58582;DHT22;44361;51.476;5.700;2023-04-24T12:15:20;10.40;99.90
58582;DHT22;44361;51.476;5.700;2023-04-24T12:17:46;10.60;99.90
58582;DHT22;44361;51.476;5.700;2023-04-24T12:20:13;10.60;99.90
58582;DHT22;44361;51.476;5.700;2023-04-24T12:22:52;10.70;99.90
58582;DHT22;44361;51.476;5.700;2023-04-24T12:25:32;10.60;99.90
58582;DHT22;44361;51.476;5.700;2023-04-24T12:30:31;10.20;99.90
58582;DHT22;44361;51.476;5.700;2023-04-24T12:32:58;10.30;99.90
58582;DHT22;44361;51.476;5.700;2023-04-24T12:35:27;10.40;99.90
58582;DHT22;44361;51.476;5.700;2023-04-24T12:37:53;10.60;99.90
58582;DHT22;44361;51.476;5.700;2023-04-24T12:40:20;11.00;99.90
58582;DHT22;44361;51.476;5.700;2023-04-24T12:42:50;11.30;99.90
58582;DHT22;44361;51.476;5.700;2023-04-24T12:45:17;11.60;99.90
58582;DHT22;44361;51.476;5.700;2023-04-24T12:47:44;11.70;99.90
58582;DHT22;44361;51.476;5.700;2023-04-24T12:50:14;11.30;99.50
58582;DHT22;44361;51.476;5.700;2023-04-24T12:52:41;11.20;99.80
58582;DHT22;44361;51.476;5.700;2023-04-24T12:55:07;11.30;99.60
58582;DHT22;44361;51.476;5.700;2023-04-24T12:57:34;11.50;99.40
58582;DHT22;44361;51.476;5.700;2023-04-24T13:00:00;11.70;99.60
58582;DHT22;44361;51.476;5.700;2023-04-24T13:02:28;12.00;99.50
58582;DHT22;44361;51.476;5.700;2023-04-24T13:04:54;12.00;97.80
58582;DHT22;44361;51.476;5.700;2023-04-24T13:07:20;12.00;98.50
58582;DHT22;44361;51.476;5.700;2023-04-24T13:09:48;11.90;98.00
58582;DHT22;44361;51.476;5.700;2023-04-24T13:12:14;12.10;98.00
58582;DHT22;44361;51.476;5.700;2023-04-24T13:14:40;12.10;98.20
58582;DHT22;44361;51.476;5.700;2023-04-24T13:17:05;12.00;97.30
58582;DHT22;44361;51.476;5.700;2023-04-24T13:19:37;11.80;96.70
58582;DHT22;44361;51.476;5.700;2023-04-24T13:22:03;11.60;97.30
58582;DHT22;44361;51.476;5.700;2023-04-24T13:24:29;11.30;97.40
58582;DHT22;44361;51.476;5.700;2023-04-24T13:26:55;11.20;97.90
58582;DHT22;44361;51.476;5.700;2023-04-24T13:29:22;11.20;97.50
58582;DHT22;44361;51.476;5.700;2023-04-24T13:31:50;11.00;97.80
58582;DHT22;44361;51.476;5.700;2023-04-24T13:34:16;10.90;98.60
58582;DHT22;44361;51.476;5.700;2023-04-24T13:36:42;10.60;98.70
58582;DHT22;44361;51.476;5.700;2023-04-24T13:39:07;10.60;99.00
58582;DHT22;44361;51.476;5.700;2023-04-24T13:41:33;10.60;98.60
58582;DHT22;44361;51.476;5.700;2023-04-24T13:43:59;10.70;98.40
58582;DHT22;44361;51.476;5.700;2023-04-24T13:46:25;10.80;99.00
58582;DHT22;44361;51.476;5.700;2023-04-24T13:48:50;10.90;98.60
58582;DHT22;44361;51.476;5.700;2023-04-24T13:51:16;10.60;99.00
58582;DHT22;44361;51.476;5.700;2023-04-24T13:53:42;10.30;99.90
58582;DHT22;44361;51.476;5.700;2023-04-24T13:56:07;10.20;99.90
58582;DHT22;44361;51.476;5.700;2023-04-24T13:58:34;10.10;99.90
58582;DHT22;44361;51.476;5.700;2023-04-24T14:01:01;10.30;99.90
58582;DHT22;44361;51.476;5.700;2023-04-24T14:03:27;10.40;99.90
58582;DHT22;44361;51.476;5.700;2023-04-24T14:05:52;10.60;99.90
58582;DHT22;44361;51.476;5.700;2023-04-24T14:08:18;11.00;99.90
58582;DHT22;44361;51.476;5.700;2023-04-24T14:10:43;11.40;99.90
58582;DHT22;44361;51.476;5.700;2023-04-24T14:13:09;11.40;99.90
58582;DHT22;44361;51.476;5.700;2023-04-24T14:15:35;11.50;99.90
58582;DHT22;44361;51.476;5.700;2023-04-24T14:18:02;11.60;99.90
58582;DHT22;44361;51.476;5.700;2023-04-24T14:20:28;11.80;99.90
58582;DHT22;44361;51.476;5.700;2023-04-24T14:22:54;11.60;99.90
58582;DHT22;44361;51.476;5.700;2023-04-24T14:25:19;11.70;99.90
58582;DHT22;44361;51.476;5.700;2023-04-24T14:27:45;11.70;99.90
58582;DHT22;44361;51.476;5.700;2023-04-24T14:30:12;11.60;99.90
58582;DHT22;44361;51.476;5.700;2023-04-24T14:32:39;11.40;99.80
58582;DHT22;44361;51.476;5.700;2023-04-24T14:35:05;11.30;99.90
58582;DHT22;44361;51.476;5.700;2023-04-24T14:37:31;11.40;99.90
58582;DHT22;44361;51.476;5.700;2023-04-24T14:39:57;11.00;99.90
58582;DHT22;44361;51.476;5.700;2023-04-24T14:42:22;10.70;99.90
58582;DHT22;44361;51.476;5.700;2023-04-24T14:44:48;10.30;99.90
58582;DHT22;44361;51.476;5.700;2023-04-24T14:47:13;10.30;99.90
58582;DHT22;44361;51.476;5.700;2023-04-24T14:49:39;10.30;99.90
58582;DHT22;44361;51.476;5.700;2023-04-24T14:52:05;10.60;99.90
58582;DHT22;44361;51.476;5.700;2023-04-24T14:54:30;10.80;99.90
58582;DHT22;44361;51.476;5.700;2023-04-24T14:56:56;10.90;99.90
58582;DHT22;44361;51.476;5.700;2023-04-24T14:59:24;11.10;99.90
58582;DHT22;44361;51.476;5.700;2023-04-24T15:01:49;11.30;99.60
58582;DHT22;44361;51.476;5.700;2023-04-24T15:04:16;11.40;99.00
58582;DHT22;44361;51.476;5.700;2023-04-24T15:06:42;11.90;98.80
58582;DHT22;44361;51.476;5.700;2023-04-24T15:09:07;12.00;97.90
58582;DHT22;44361;51.476;5.700;2023-04-24T15:11:33;11.70;95.50
58582;DHT22;44361;51.476;5.700;2023-04-24T15:13:59;11.50;96.80
58582;DHT22;44361;51.476;5.700;2023-04-24T15:16:24;11.30;96.40
58582;DHT22;44361;51.476;5.700;2023-04-24T15:18:50;11.40;97.10
58582;DHT22;44361;51.476;5.700;2023-04-24T15:21:16;11.60;97.00
58582;DHT22;44361;51.476;5.700;2023-04-24T15:23:41;11.80;95.60
58582;DHT22;44361;51.476;5.700;2023-04-24T15:26:07;11.80;95.10
58582;DHT22;44361;51.476;5.700;2023-04-24T15:28:32;12.00;95.30
58582;DHT22;44361;51.476;5.700;2023-04-24T15:30:58;12.10;95.80
58582;DHT22;44361;51.476;5.700;2023-04-24T15:33:23;12.00;94.20
58582;DHT22;44361;51.476;5.700;2023-04-24T15:35:51;12.00;94.10
58582;DHT22;44361;51.476;5.700;2023-04-24T15:38:16;12.10;94.40
58582;DHT22;44361;51.476;5.700;2023-04-24T15:40:42;12.10;93.40
58582;DHT22;44361;51.476;5.700;2023-04-24T15:43:07;12.30;94.10
58582;DHT22;44361;51.476;5.700;2023-04-24T15:45:33;12.30;94.40
58582;DHT22;44361;51.476;5.700;2023-04-24T15:47:58;12.50;92.60
58582;DHT22;44361;51.476;5.700;2023-04-24T15:50:25;12.20;94.80
58582;DHT22;44361;51.476;5.700;2023-04-24T15:52:51;11.60;97.30
58582;DHT22;44361;51.476;5.700;2023-04-24T15:55:16;11.20;98.40
58582;DHT22;44361;51.476;5.700;2023-04-24T15:57:42;10.60;99.80
58582;DHT22;44361;51.476;5.700;2023-04-24T16:00:08;10.50;99.90
58582;DHT22;44361;51.476;5.700;2023-04-24T16:02:35;10.60;99.90
58582;DHT22;44361;51.476;5.700;2023-04-24T16:05:00;10.80;99.90